Time;durP1;ratioP1;P1;durP2;ratioP2;P2;SDS_P1;SDS_P2;PMS_P1;PMS_P2;Temp;Humidity;BMP_temperature;BMP_pressure;BME280_temperature;BME280_humidity;BME280_pressure;Samples;Min_cycle;Max_cycle;Signal;HPM_P1;HPM_P2
2022/03/30 00:00:52;;;;;;;;;;;9.50;99.90;;;;;;2076029;28;19911;-69
2022/03/30 00:01:53;;;;;;;;;;;9.40;99.90;;;;;;2077145;28;20404;-69
2022/03/30 00:02:54;;;;;;;;;;;9.40;99.90;;;;;;2077689;28;19936;-69
2022/03/30 00:03:54;;;;;;;;;;;9.40;99.90;;;;;;2076243;28;20004;-69
2022/03/30 00:04:56;;;;;;;;;;;9.40;99.90;;;;;;2076109;28;19909;-69
2022/03/30 00:05:57;;;;;;;;;;;9.40;99.90;;;;;;2075080;28;19909;-69
2022/03/30 00:06:57;;;;;;;;;;;9.40;99.90;;;;;;2077610;28;19943;-69
2022/03/30 00:07:57;;;;;;;;;;;9.40;99.90;;;;;;2078087;28;20413;-69
2022/03/30 00:08:58;;;;;;;;;;;9.40;99.90;;;;;;2077864;28;20007;-69
2022/03/30 00:09:59;;;;;;;;;;;9.40;99.90;;;;;;2079337;28;19905;-69
2022/03/30 00:10:59;;;;;;;;;;;9.30;99.90;;;;;;2074719;28;19906;-69
2022/03/30 00:12:00;;;;;;;;;;;9.30;99.90;;;;;;2078189;28;19997;-69
2022/03/30 00:13:01;;;;;;;;;;;9.30;99.90;;;;;;2076532;28;19924;-69
2022/03/30 00:14:01;;;;;;;;;;;9.20;99.90;;;;;;2075807;28;19963;-69
2022/03/30 00:15:02;;;;;;;;;;;9.20;99.90;;;;;;2083171;28;19908;-69
2022/03/30 00:16:03;;;;;;;;;;;9.20;99.90;;;;;;2075038;28;19935;-69
2022/03/30 00:17:04;;;;;;;;;;;9.20;99.90;;;;;;2077707;28;19917;-69
2022/03/30 00:18:05;;;;;;;;;;;9.20;99.90;;;;;;2079092;28;19916;-69
2022/03/30 00:19:05;;;;;;;;;;;9.20;99.90;;;;;;2079116;28;19916;-69
2022/03/30 00:20:06;;;;;;;;;;;9.20;99.90;;;;;;2076446;28;19912;-69
2022/03/30 00:21:06;;;;;;;;;;;9.20;99.90;;;;;;2075840;28;20276;-69
2022/03/30 00:22:07;;;;;;;;;;;9.20;99.90;;;;;;2075649;28;19908;-69
2022/03/30 00:23:08;;;;;;;;;;;9.20;99.90;;;;;;2079801;28;20292;-69
2022/03/30 00:24:08;;;;;;;;;;;9.20;99.90;;;;;;2077718;28;20419;-69
2022/03/30 00:25:10;;;;;;;;;;;9.20;99.90;;;;;;2081132;28;20327;-69
2022/03/30 00:26:11;;;;;;;;;;;9.20;99.90;;;;;;2076720;28;20005;-70
2022/03/30 00:27:11;;;;;;;;;;;9.10;99.90;;;;;;2078147;28;19912;-69
2022/03/30 00:28:12;;;;;;;;;;;9.10;99.90;;;;;;2076182;28;19963;-69
2022/03/30 00:29:12;;;;;;;;;;;9.20;99.90;;;;;;2079944;28;19908;-69
2022/03/30 00:30:14;;;;;;;;;;;9.10;99.90;;;;;;2077155;28;19909;-69
2022/03/30 00:31:18;;;;;;;;;;;9.10;99.90;;;;;;2077550;28;19944;-69
2022/03/30 00:32:18;;;;;;;;;;;9.10;99.90;;;;;;2075596;28;19971;-69
2022/03/30 00:33:19;;;;;;;;;;;9.00;99.90;;;;;;2078076;28;20336;-69
2022/03/30 00:34:19;;;;;;;;;;;9.10;99.90;;;;;;2086548;28;19994;-69
2022/03/30 00:35:20;;;;;;;;;;;9.00;99.90;;;;;;2087488;28;19946;-69
2022/03/30 00:36:21;;;;;;;;;;;9.00;99.90;;;;;;2076874;28;19909;-69
2022/03/30 00:37:21;;;;;;;;;;;9.00;99.90;;;;;;2080015;28;19920;-69
2022/03/30 00:38:22;;;;;;;;;;;9.00;99.90;;;;;;2080296;28;19924;-69
2022/03/30 00:39:22;;;;;;;;;;;9.00;99.90;;;;;;2080827;28;19912;-69
2022/03/30 00:40:23;;;;;;;;;;;9.00;99.90;;;;;;2078573;28;20000;-69
2022/03/30 00:41:26;;;;;;;;;;;9.00;99.90;;;;;;2076688;28;19921;-69
2022/03/30 00:42:26;;;;;;;;;;;9.00;99.90;;;;;;2078720;28;19909;-69
2022/03/30 00:43:27;;;;;;;;;;;9.00;99.90;;;;;;2075934;28;19913;-70
2022/03/30 00:44:27;;;;;;;;;;;9.00;99.90;;;;;;2079349;28;19920;-69
2022/03/30 00:45:28;;;;;;;;;;;8.90;99.90;;;;;;2078519;28;20466;-69
2022/03/30 00:46:28;;;;;;;;;;;8.90;99.90;;;;;;2078749;28;19912;-69
2022/03/30 00:47:29;;;;;;;;;;;8.90;99.90;;;;;;2076482;28;19913;-69
2022/03/30 00:48:29;;;;;;;;;;;8.90;99.90;;;;;;2080327;28;19967;-69
2022/03/30 00:49:30;;;;;;;;;;;8.90;99.90;;;;;;2079362;28;20390;-69
2022/03/30 00:50:30;;;;;;;;;;;8.90;99.90;;;;;;2080169;28;19989;-69
2022/03/30 00:51:31;;;;;;;;;;;8.90;99.90;;;;;;2074404;28;19913;-69
2022/03/30 00:52:32;;;;;;;;;;;8.90;99.90;;;;;;2080436;28;20284;-69
2022/03/30 00:53:32;;;;;;;;;;;8.90;99.90;;;;;;2078265;28;20391;-69
2022/03/30 00:54:33;;;;;;;;;;;8.90;99.90;;;;;;2078190;28;19968;-69
2022/03/30 00:55:34;;;;;;;;;;;8.90;99.90;;;;;;2081170;28;19956;-69
2022/03/30 00:56:35;;;;;;;;;;;8.90;99.90;;;;;;2076938;28;19913;-69
2022/03/30 00:57:37;;;;;;;;;;;8.90;99.90;;;;;;2076844;28;19945;-69
2022/03/30 00:58:38;;;;;;;;;;;8.90;99.90;;;;;;2074717;28;19912;-69
2022/03/30 00:59:39;;;;;;;;;;;8.90;99.90;;;;;;2075010;28;20385;-69
2022/03/30 01:00:40;;;;;;;;;;;8.90;99.90;;;;;;2075642;28;20393;-69
2022/03/30 01:01:40;;;;;;;;;;;8.90;99.90;;;;;;2080689;28;19910;-69
2022/03/30 01:02:43;;;;;;;;;;;8.80;99.90;;;;;;2076203;28;19917;-69
2022/03/30 01:03:44;;;;;;;;;;;8.80;99.90;;;;;;2078062;28;20300;-69
2022/03/30 01:04:45;;;;;;;;;;;8.80;99.90;;;;;;2077134;28;20194;-70
2022/03/30 01:05:45;;;;;;;;;;;8.80;99.90;;;;;;2078107;28;19956;-69
2022/03/30 01:06:46;;;;;;;;;;;8.80;99.90;;;;;;2079591;28;19916;-69
2022/03/30 01:07:46;;;;;;;;;;;8.80;99.90;;;;;;2076713;28;19916;-69
2022/03/30 01:08:48;;;;;;;;;;;8.80;99.90;;;;;;2076931;28;19909;-69
2022/03/30 01:09:48;;;;;;;;;;;8.80;99.90;;;;;;2073885;28;20352;-69
2022/03/30 01:10:49;;;;;;;;;;;8.80;99.90;;;;;;2079209;28;20265;-69
2022/03/30 01:11:52;;;;;;;;;;;8.70;99.90;;;;;;2075939;28;19913;-69
2022/03/30 01:12:54;;;;;;;;;;;8.70;99.90;;;;;;2078040;28;19909;-69
2022/03/30 01:13:55;;;;;;;;;;;8.70;99.90;;;;;;2079662;28;20352;-69
2022/03/30 01:14:55;;;;;;;;;;;8.70;99.90;;;;;;2080551;28;20327;-69
2022/03/30 01:15:56;;;;;;;;;;;8.70;99.90;;;;;;2074794;28;20252;-69
2022/03/30 01:16:56;;;;;;;;;;;8.70;99.90;;;;;;2076145;28;19910;-69
2022/03/30 01:17:56;;;;;;;;;;;8.70;99.90;;;;;;2077595;28;19916;-69
2022/03/30 01:19:04;;;;;;;;;;;8.60;99.90;;;;;;2081406;28;19936;-69
2022/03/30 01:20:05;;;;;;;;;;;8.70;99.90;;;;;;2077735;28;20296;-68
2022/03/30 01:21:08;;;;;;;;;;;8.60;99.90;;;;;;2077512;28;19963;-68
2022/03/30 01:22:08;;;;;;;;;;;8.60;99.90;;;;;;2077852;28;20004;-69
2022/03/30 01:23:09;;;;;;;;;;;8.60;99.90;;;;;;2076552;28;19909;-69
2022/03/30 01:24:10;;;;;;;;;;;8.60;99.90;;;;;;2077443;28;19909;-69
2022/03/30 01:25:11;;;;;;;;;;;8.60;99.90;;;;;;2077359;28;19917;-69
2022/03/30 01:26:11;;;;;;;;;;;8.60;99.90;;;;;;2075303;28;19914;-69
2022/03/30 01:27:12;;;;;;;;;;;8.60;99.90;;;;;;2077473;28;19928;-69
2022/03/30 01:28:12;;;;;;;;;;;8.60;99.90;;;;;;2079929;28;20032;-69
2022/03/30 01:33:12;;;;;;;;;;;8.50;99.90;;;;;;2080372;28;19917;-69
2022/03/30 01:34:13;;;;;;;;;;;8.50;99.90;;;;;;2079560;28;20000;-69
2022/03/30 01:35:14;;;;;;;;;;;8.50;99.90;;;;;;2079637;28;19924;-68
2022/03/30 01:36:17;;;;;;;;;;;8.50;99.90;;;;;;2077379;28;19916;-68
2022/03/30 01:37:18;;;;;;;;;;;8.50;99.90;;;;;;2077522;28;19919;-69
2022/03/30 01:38:18;;;;;;;;;;;8.40;99.90;;;;;;2077295;28;19906;-69
2022/03/30 01:39:19;;;;;;;;;;;8.40;99.90;;;;;;2076660;28;19919;-69
2022/03/30 01:40:19;;;;;;;;;;;8.40;99.90;;;;;;2075917;28;19924;-69
2022/03/30 01:41:20;;;;;;;;;;;8.40;99.90;;;;;;2080435;28;19913;-69
2022/03/30 01:42:20;;;;;;;;;;;8.40;99.90;;;;;;2077343;28;19905;-69
2022/03/30 01:43:21;;;;;;;;;;;8.40;99.90;;;;;;2077848;28;19948;-69
2022/03/30 01:44:22;;;;;;;;;;;8.40;99.90;;;;;;2079566;28;20374;-69
2022/03/30 01:45:22;;;;;;;;;;;8.40;99.90;;;;;;2075920;28;19948;-69
2022/03/30 01:46:23;;;;;;;;;;;8.30;99.90;;;;;;2077411;28;19905;-69
2022/03/30 01:47:24;;;;;;;;;;;8.30;99.90;;;;;;2073845;28;19914;-69
2022/03/30 01:48:25;;;;;;;;;;;8.30;99.90;;;;;;2080547;28;19908;-69
2022/03/30 01:49:25;;;;;;;;;;;8.30;99.90;;;;;;2076657;28;20308;-69
2022/03/30 01:50:27;;;;;;;;;;;8.30;99.90;;;;;;2075308;28;19955;-69
2022/03/30 01:51:27;;;;;;;;;;;8.30;99.90;;;;;;2075170;28;19905;-69
2022/03/30 01:52:28;;;;;;;;;;;8.30;99.90;;;;;;2080115;28;19905;-69
2022/03/30 01:53:28;;;;;;;;;;;8.30;99.90;;;;;;2077169;28;19955;-69
2022/03/30 01:54:33;;;;;;;;;;;8.20;99.90;;;;;;2075868;28;19917;-69
2022/03/30 01:55:34;;;;;;;;;;;8.20;99.90;;;;;;2078473;28;19921;-69
2022/03/30 01:56:34;;;;;;;;;;;8.20;99.90;;;;;;2078175;28;19917;-69
2022/03/30 01:57:34;;;;;;;;;;;8.20;99.90;;;;;;2077601;28;20046;-69
2022/03/30 01:58:35;;;;;;;;;;;8.20;99.90;;;;;;2078744;28;20276;-69
2022/03/30 01:59:35;;;;;;;;;;;8.20;99.90;;;;;;2078117;28;19905;-69
2022/03/30 02:00:37;;;;;;;;;;;8.20;99.90;;;;;;2078001;28;20322;-69
2022/03/30 02:01:38;;;;;;;;;;;8.20;99.90;;;;;;2075895;28;19909;-69
2022/03/30 02:02:39;;;;;;;;;;;8.10;99.90;;;;;;2080694;28;19916;-69
2022/03/30 02:03:39;;;;;;;;;;;8.20;99.90;;;;;;2080767;28;19909;-69
2022/03/30 02:04:40;;;;;;;;;;;8.10;99.90;;;;;;2080442;28;19913;-69
2022/03/30 02:05:40;;;;;;;;;;;8.10;99.90;;;;;;2078321;28;19905;-69
2022/03/30 02:06:41;;;;;;;;;;;8.10;99.90;;;;;;2076934;28;20320;-69
2022/03/30 02:07:41;;;;;;;;;;;8.10;99.90;;;;;;2078319;28;19992;-69
2022/03/30 02:08:42;;;;;;;;;;;8.10;99.90;;;;;;2077599;28;19913;-69
2022/03/30 02:09:42;;;;;;;;;;;8.10;99.90;;;;;;2076586;28;19910;-69
2022/03/30 02:10:43;;;;;;;;;;;8.00;99.90;;;;;;2073996;28;19905;-69
2022/03/30 02:11:43;;;;;;;;;;;8.00;99.90;;;;;;2079344;28;19912;-69
2022/03/30 02:12:44;;;;;;;;;;;8.00;99.90;;;;;;2079372;28;20392;-69
2022/03/30 02:13:44;;;;;;;;;;;8.00;99.90;;;;;;2077410;28;19963;-69
2022/03/30 02:14:44;;;;;;;;;;;8.00;99.90;;;;;;2077345;28;20001;-69
2022/03/30 02:15:45;;;;;;;;;;;8.00;99.90;;;;;;2076757;28;20279;-68
2022/03/30 02:16:46;;;;;;;;;;;8.00;99.90;;;;;;2078063;28;19913;-69
2022/03/30 02:17:46;;;;;;;;;;;8.00;99.90;;;;;;2078774;28;19905;-69
2022/03/30 02:18:47;;;;;;;;;;;7.90;99.90;;;;;;2075872;28;20336;-69
2022/03/30 02:19:47;;;;;;;;;;;7.90;99.90;;;;;;2079830;28;19992;-69
2022/03/30 02:20:48;;;;;;;;;;;7.90;99.90;;;;;;2077462;28;20268;-69
2022/03/30 02:21:48;;;;;;;;;;;7.90;99.90;;;;;;2078252;28;19909;-69
2022/03/30 02:22:49;;;;;;;;;;;7.90;99.90;;;;;;2074761;28;20416;-69
2022/03/30 02:23:50;;;;;;;;;;;7.90;99.90;;;;;;2078928;28;20478;-69
2022/03/30 02:24:50;;;;;;;;;;;7.90;99.90;;;;;;2077257;28;19917;-69
2022/03/30 02:25:51;;;;;;;;;;;7.80;99.90;;;;;;2074176;28;19909;-69
2022/03/30 02:26:52;;;;;;;;;;;7.80;99.90;;;;;;2073355;28;19909;-69
2022/03/30 02:27:53;;;;;;;;;;;7.80;99.90;;;;;;2079252;28;19905;-69
2022/03/30 02:28:54;;;;;;;;;;;7.80;99.90;;;;;;2078503;28;19920;-69
2022/03/30 02:29:54;;;;;;;;;;;7.80;99.90;;;;;;2075640;28;20284;-69
2022/03/30 02:30:55;;;;;;;;;;;7.80;99.90;;;;;;2079403;28;19913;-69
2022/03/30 02:31:55;;;;;;;;;;;7.80;99.90;;;;;;2076848;28;20436;-68
2022/03/30 02:32:57;;;;;;;;;;;7.80;99.90;;;;;;2077698;28;20360;-68
2022/03/30 02:33:58;;;;;;;;;;;7.80;99.90;;;;;;2080250;28;20324;-68
2022/03/30 02:34:58;;;;;;;;;;;7.80;99.90;;;;;;2073785;28;19959;-68
2022/03/30 02:35:59;;;;;;;;;;;7.80;99.90;;;;;;2073557;28;20073;-68
2022/03/30 02:37:00;;;;;;;;;;;7.70;99.90;;;;;;2079557;28;19906;-68
2022/03/30 02:38:00;;;;;;;;;;;7.70;99.90;;;;;;2073050;28;20340;-68
2022/03/30 02:39:01;;;;;;;;;;;7.70;99.90;;;;;;2079965;28;19913;-68
2022/03/30 02:40:03;;;;;;;;;;;7.70;99.90;;;;;;2078928;28;19913;-68
2022/03/30 02:41:05;;;;;;;;;;;7.70;99.90;;;;;;2077407;28;19948;-69
2022/03/30 02:42:07;;;;;;;;;;;7.70;99.90;;;;;;2077225;28;19913;-68
2022/03/30 02:43:09;;;;;;;;;;;7.70;99.90;;;;;;2081188;28;19916;-68
2022/03/30 02:44:09;;;;;;;;;;;7.80;99.90;;;;;;2077895;28;19952;-68
2022/03/30 02:45:10;;;;;;;;;;;7.70;99.90;;;;;;2075592;28;19964;-68
2022/03/30 02:46:10;;;;;;;;;;;7.70;99.90;;;;;;2080201;28;19963;-68
2022/03/30 02:47:10;;;;;;;;;;;7.70;99.90;;;;;;2077594;28;20249;-68
2022/03/30 02:48:22;;;;;;;;;;;7.70;99.90;;;;;;2079329;28;19912;-68
2022/03/30 02:49:24;;;;;;;;;;;7.70;99.90;;;;;;2078059;28;19944;-69
2022/03/30 02:50:25;;;;;;;;;;;7.70;99.90;;;;;;2073544;28;19964;-69
2022/03/30 02:51:27;;;;;;;;;;;7.70;99.90;;;;;;2076771;28;19943;-68
2022/03/30 02:52:28;;;;;;;;;;;7.70;99.90;;;;;;2077036;28;19987;-68
2022/03/30 02:53:29;;;;;;;;;;;7.60;99.90;;;;;;2078228;28;19908;-68
2022/03/30 02:54:30;;;;;;;;;;;7.60;99.90;;;;;;2076542;28;20431;-68
2022/03/30 02:55:30;;;;;;;;;;;7.60;99.90;;;;;;2077550;28;20327;-68
2022/03/30 02:56:31;;;;;;;;;;;7.60;99.90;;;;;;2075386;28;19973;-69
2022/03/30 02:57:31;;;;;;;;;;;7.60;99.90;;;;;;2076372;28;19909;-69
2022/03/30 02:58:32;;;;;;;;;;;7.60;99.90;;;;;;2078185;28;19905;-69
2022/03/30 02:59:34;;;;;;;;;;;7.60;99.90;;;;;;2078235;28;19909;-69
2022/03/30 03:00:35;;;;;;;;;;;7.60;99.90;;;;;;2077194;28;19915;-69
2022/03/30 03:01:36;;;;;;;;;;;7.60;99.90;;;;;;2078371;28;19961;-69
2022/03/30 03:02:36;;;;;;;;;;;7.50;99.90;;;;;;2079241;28;20404;-69
2022/03/30 03:03:37;;;;;;;;;;;7.50;99.90;;;;;;2077451;28;19905;-69
2022/03/30 03:04:39;;;;;;;;;;;7.50;99.90;;;;;;2079087;28;19992;-69
2022/03/30 03:05:41;;;;;;;;;;;7.40;99.90;;;;;;2078240;28;19905;-69
2022/03/30 03:06:41;;;;;;;;;;;7.40;99.90;;;;;;2075147;28;19992;-69
2022/03/30 03:07:42;;;;;;;;;;;7.40;99.90;;;;;;2079368;28;19909;-69
2022/03/30 03:08:42;;;;;;;;;;;7.40;99.90;;;;;;2077020;28;20284;-69
2022/03/30 03:09:43;;;;;;;;;;;7.40;99.90;;;;;;2077265;28;19905;-69
2022/03/30 03:10:44;;;;;;;;;;;7.40;99.90;;;;;;2076000;28;20414;-69
2022/03/30 03:11:45;;;;;;;;;;;7.30;99.90;;;;;;2074307;28;19909;-69
2022/03/30 03:12:45;;;;;;;;;;;7.40;99.90;;;;;;2076032;28;19924;-68
2022/03/30 03:13:46;;;;;;;;;;;7.40;99.90;;;;;;2074100;28;20268;-68
2022/03/30 03:14:46;;;;;;;;;;;7.30;99.90;;;;;;2078084;28;19963;-68
2022/03/30 03:15:47;;;;;;;;;;;7.30;99.90;;;;;;2074113;28;20292;-68
2022/03/30 03:16:48;;;;;;;;;;;7.30;99.90;;;;;;2078370;28;20449;-68
2022/03/30 03:17:49;;;;;;;;;;;7.20;99.90;;;;;;2075836;28;19904;-69
2022/03/30 03:18:50;;;;;;;;;;;7.20;99.90;;;;;;2077946;28;20372;-69
2022/03/30 03:19:50;;;;;;;;;;;7.20;99.90;;;;;;2078668;28;20015;-69
2022/03/30 03:20:51;;;;;;;;;;;7.20;99.90;;;;;;2077154;28;19916;-69
2022/03/30 03:21:51;;;;;;;;;;;7.20;99.90;;;;;;2076505;28;19916;-69
2022/03/30 03:22:52;;;;;;;;;;;7.10;99.90;;;;;;2076387;28;19913;-68
2022/03/30 03:23:52;;;;;;;;;;;7.10;99.90;;;;;;2076204;28;19916;-69
2022/03/30 03:24:52;;;;;;;;;;;7.10;99.90;;;;;;2076449;28;19911;-69
2022/03/30 03:25:53;;;;;;;;;;;7.00;99.90;;;;;;2072917;28;19906;-69
2022/03/30 03:26:54;;;;;;;;;;;7.00;99.90;;;;;;2076945;28;19909;-68
2022/03/30 03:27:55;;;;;;;;;;;7.00;99.90;;;;;;2072974;28;19913;-69
2022/03/30 03:28:56;;;;;;;;;;;7.00;99.90;;;;;;2075824;28;19913;-69
2022/03/30 03:29:57;;;;;;;;;;;6.90;99.90;;;;;;2077380;28;19968;-69
2022/03/30 03:30:57;;;;;;;;;;;6.90;99.90;;;;;;2080894;28;19923;-68
2022/03/30 03:31:57;;;;;;;;;;;6.90;99.90;;;;;;2078094;28;20264;-68
2022/03/30 03:32:59;;;;;;;;;;;6.90;99.90;;;;;;2077091;28;19916;-68
2022/03/30 03:34:00;;;;;;;;;;;6.90;99.90;;;;;;2076746;28;19905;-68
2022/03/30 03:35:00;;;;;;;;;;;6.90;99.90;;;;;;2078147;28;19909;-68
2022/03/30 03:36:01;;;;;;;;;;;6.90;99.90;;;;;;2075286;28;20361;-68
2022/03/30 03:37:01;;;;;;;;;;;6.80;99.90;;;;;;2077883;28;19945;-68
2022/03/30 03:38:03;;;;;;;;;;;6.80;99.90;;;;;;2077248;28;19998;-68
2022/03/30 03:39:03;;;;;;;;;;;6.80;99.90;;;;;;2075473;28;19971;-68
2022/03/30 03:40:04;;;;;;;;;;;6.80;99.90;;;;;;2076941;28;20000;-68
2022/03/30 03:41:06;;;;;;;;;;;6.80;99.90;;;;;;2074408;28;20616;-69
2022/03/30 03:42:07;;;;;;;;;;;6.80;99.90;;;;;;2073662;28;19913;-68
2022/03/30 03:43:07;;;;;;;;;;;6.70;99.90;;;;;;2074231;28;19917;-68
2022/03/30 03:44:08;;;;;;;;;;;6.70;99.90;;;;;;2074816;28;20355;-68
2022/03/30 03:45:09;;;;;;;;;;;6.70;99.90;;;;;;2074693;28;19916;-69
2022/03/30 03:46:09;;;;;;;;;;;6.70;99.90;;;;;;2073701;28;19953;-68
2022/03/30 03:47:10;;;;;;;;;;;6.70;99.90;;;;;;2076047;28;19957;-68
2022/03/30 03:48:10;;;;;;;;;;;6.70;99.90;;;;;;2080506;28;20372;-68
2022/03/30 03:49:10;;;;;;;;;;;6.60;99.90;;;;;;2076258;28;19952;-69
2022/03/30 03:50:11;;;;;;;;;;;6.60;99.90;;;;;;2078133;28;20254;-69
2022/03/30 03:51:12;;;;;;;;;;;6.60;99.90;;;;;;2076946;28;19909;-69
2022/03/30 03:52:12;;;;;;;;;;;6.60;99.90;;;;;;2077896;28;19909;-69
2022/03/30 03:53:13;;;;;;;;;;;6.60;99.90;;;;;;2078868;28;19913;-68
2022/03/30 03:54:13;;;;;;;;;;;6.60;99.90;;;;;;2077978;28;19994;-68
2022/03/30 03:55:14;;;;;;;;;;;6.60;99.90;;;;;;2078494;28;19917;-69
2022/03/30 03:56:14;;;;;;;;;;;6.60;99.90;;;;;;2077420;28;19913;-69
2022/03/30 03:57:15;;;;;;;;;;;6.60;99.90;;;;;;2079577;28;19951;-68
2022/03/30 03:58:15;;;;;;;;;;;6.60;99.90;;;;;;2080222;28;19963;-68
2022/03/30 03:59:16;;;;;;;;;;;6.50;99.90;;;;;;2080521;28;19909;-68
2022/03/30 04:00:16;;;;;;;;;;;6.50;99.90;;;;;;2076511;28;19941;-68
2022/03/30 04:01:17;;;;;;;;;;;6.50;99.90;;;;;;2078807;28;19909;-68
2022/03/30 04:02:17;;;;;;;;;;;6.50;99.90;;;;;;2077391;28;19931;-68
2022/03/30 04:03:18;;;;;;;;;;;6.50;99.90;;;;;;2079768;28;19915;-68
2022/03/30 04:04:18;;;;;;;;;;;6.50;99.90;;;;;;2080171;28;20427;-68
2022/03/30 04:05:19;;;;;;;;;;;6.50;99.90;;;;;;2077148;28;19906;-68
2022/03/30 04:06:20;;;;;;;;;;;6.40;99.90;;;;;;2079377;28;20315;-68
2022/03/30 04:07:20;;;;;;;;;;;6.50;99.90;;;;;;2076801;28;19913;-69
2022/03/30 04:08:21;;;;;;;;;;;6.40;99.90;;;;;;2081984;28;19920;-69
2022/03/30 04:09:21;;;;;;;;;;;6.40;99.90;;;;;;2077640;28;19936;-69
2022/03/30 04:10:22;;;;;;;;;;;6.40;99.90;;;;;;2078727;28;19948;-68
2022/03/30 04:11:22;;;;;;;;;;;6.40;99.90;;;;;;2077604;28;19993;-69
2022/03/30 04:12:23;;;;;;;;;;;6.40;99.90;;;;;;2076034;28;19951;-68
2022/03/30 04:13:25;;;;;;;;;;;6.40;99.90;;;;;;2079344;28;20036;-68
2022/03/30 04:14:25;;;;;;;;;;;6.40;99.90;;;;;;2079409;28;20288;-68
2022/03/30 04:15:26;;;;;;;;;;;6.30;99.90;;;;;;2076802;28;19913;-68
2022/03/30 04:16:26;;;;;;;;;;;6.30;99.90;;;;;;2079536;28;19967;-68
2022/03/30 04:17:27;;;;;;;;;;;6.30;99.90;;;;;;2080259;28;20304;-68
2022/03/30 04:18:27;;;;;;;;;;;6.30;99.90;;;;;;2078944;28;19916;-68
2022/03/30 04:19:28;;;;;;;;;;;6.30;99.90;;;;;;2078903;28;20249;-69
2022/03/30 04:20:28;;;;;;;;;;;6.30;99.90;;;;;;2077594;28;20010;-69
2022/03/30 04:21:29;;;;;;;;;;;6.30;99.90;;;;;;2079422;28;19913;-70
2022/03/30 04:22:29;;;;;;;;;;;6.30;99.90;;;;;;2079944;28;19917;-68
2022/03/30 04:23:30;;;;;;;;;;;6.20;99.90;;;;;;2077646;28;19920;-68
2022/03/30 04:24:30;;;;;;;;;;;6.20;99.90;;;;;;2080202;28;19913;-68
2022/03/30 04:25:31;;;;;;;;;;;6.30;99.90;;;;;;2078642;28;19920;-68
2022/03/30 04:26:31;;;;;;;;;;;6.30;99.90;;;;;;2075924;28;19908;-68
2022/03/30 04:27:32;;;;;;;;;;;6.20;99.90;;;;;;2080860;28;19912;-68
2022/03/30 04:28:34;;;;;;;;;;;6.20;99.90;;;;;;2076746;28;19944;-68
2022/03/30 04:29:34;;;;;;;;;;;6.20;99.90;;;;;;2077128;28;19913;-69
2022/03/30 04:30:35;;;;;;;;;;;6.20;99.90;;;;;;2080966;28;20399;-68
2022/03/30 04:31:35;;;;;;;;;;;6.20;99.90;;;;;;2080437;28;19956;-68
2022/03/30 04:32:36;;;;;;;;;;;6.20;99.90;;;;;;2081652;28;19973;-68
2022/03/30 04:33:37;;;;;;;;;;;6.20;99.90;;;;;;2079160;28;19937;-68
2022/03/30 04:34:37;;;;;;;;;;;6.20;99.90;;;;;;2076139;28;19912;-68
2022/03/30 04:35:38;;;;;;;;;;;6.20;99.90;;;;;;2079083;28;19932;-68
2022/03/30 04:36:39;;;;;;;;;;;6.20;99.90;;;;;;2078597;28;19909;-68
2022/03/30 04:37:39;;;;;;;;;;;6.20;99.90;;;;;;2075503;28;19913;-68
2022/03/30 04:38:40;;;;;;;;;;;6.20;99.90;;;;;;2078057;28;20384;-68
2022/03/30 04:39:40;;;;;;;;;;;6.20;99.90;;;;;;2076224;28;19917;-68
2022/03/30 04:40:40;;;;;;;;;;;6.10;99.90;;;;;;2078984;28;19963;-68
2022/03/30 04:41:41;;;;;;;;;;;6.10;99.90;;;;;;2079039;28;19920;-68
2022/03/30 04:42:42;;;;;;;;;;;6.10;99.90;;;;;;2078477;28;19906;-68
2022/03/30 04:43:42;;;;;;;;;;;6.10;99.90;;;;;;2077151;28;20432;-68
2022/03/30 04:44:43;;;;;;;;;;;6.10;99.90;;;;;;2079362;28;19912;-68
2022/03/30 04:45:43;;;;;;;;;;;6.10;99.90;;;;;;2080334;28;19913;-68
2022/03/30 04:46:43;;;;;;;;;;;6.00;99.90;;;;;;2076451;28;19939;-68
2022/03/30 04:47:44;;;;;;;;;;;6.00;99.90;;;;;;2077658;28;19917;-68
2022/03/30 04:48:44;;;;;;;;;;;6.00;99.90;;;;;;2079461;28;19909;-68
2022/03/30 04:49:45;;;;;;;;;;;6.00;99.90;;;;;;2075635;28;19948;-68
2022/03/30 04:50:45;;;;;;;;;;;6.00;99.90;;;;;;2080829;28;20016;-68
2022/03/30 04:51:46;;;;;;;;;;;5.90;99.90;;;;;;2078063;28;19959;-68
2022/03/30 04:52:46;;;;;;;;;;;6.00;99.90;;;;;;2078016;28;19959;-68
2022/03/30 04:53:47;;;;;;;;;;;6.00;99.90;;;;;;2080685;28;19905;-68
2022/03/30 04:54:47;;;;;;;;;;;6.00;99.90;;;;;;2080928;28;19979;-68
2022/03/30 04:55:48;;;;;;;;;;;5.90;99.90;;;;;;2079611;28;19920;-68
2022/03/30 04:56:51;;;;;;;;;;;5.90;99.90;;;;;;2078670;28;19951;-69
2022/03/30 04:57:52;;;;;;;;;;;5.90;99.90;;;;;;2076634;28;19906;-68
2022/03/30 04:58:53;;;;;;;;;;;5.90;99.90;;;;;;2075159;28;19921;-69
2022/03/30 04:59:53;;;;;;;;;;;5.90;99.90;;;;;;2077263;28;19911;-68
2022/03/30 05:00:54;;;;;;;;;;;5.90;99.90;;;;;;2074768;28;19917;-68
2022/03/30 05:01:54;;;;;;;;;;;5.80;99.90;;;;;;2075140;28;19913;-68
2022/03/30 05:02:55;;;;;;;;;;;5.80;99.90;;;;;;2078997;28;19913;-68
2022/03/30 05:03:55;;;;;;;;;;;5.80;99.90;;;;;;2080902;28;19992;-68
2022/03/30 05:04:56;;;;;;;;;;;5.80;99.90;;;;;;2080190;28;20382;-68
2022/03/30 05:05:57;;;;;;;;;;;5.80;99.90;;;;;;2076589;28;19909;-68
2022/03/30 05:06:58;;;;;;;;;;;5.80;99.90;;;;;;2077314;28;20003;-68
2022/03/30 05:07:58;;;;;;;;;;;5.70;99.90;;;;;;2078256;28;19913;-68
2022/03/30 05:08:59;;;;;;;;;;;5.70;99.90;;;;;;2079017;28;19951;-68
2022/03/30 05:09:59;;;;;;;;;;;5.70;99.90;;;;;;2077528;28;20352;-68
2022/03/30 05:11:00;;;;;;;;;;;5.70;99.90;;;;;;2078492;28;19916;-68
2022/03/30 05:12:01;;;;;;;;;;;5.70;99.90;;;;;;2073893;28;19909;-68
2022/03/30 05:13:04;;;;;;;;;;;5.70;99.90;;;;;;2080086;28;19969;-68
2022/03/30 05:14:05;;;;;;;;;;;5.70;99.90;;;;;;2077631;28;19940;-68
2022/03/30 05:15:06;;;;;;;;;;;5.70;99.90;;;;;;2076553;28;19935;-68
2022/03/30 05:16:06;;;;;;;;;;;5.60;99.90;;;;;;2076685;28;19905;-69
2022/03/30 05:17:08;;;;;;;;;;;5.60;99.90;;;;;;2079832;28;19909;-68
2022/03/30 05:18:08;;;;;;;;;;;5.60;99.90;;;;;;2080296;28;19909;-68
2022/03/30 05:19:10;;;;;;;;;;;5.60;99.90;;;;;;2078383;28;19956;-68
2022/03/30 05:20:11;;;;;;;;;;;5.60;99.90;;;;;;2078474;28;19905;-68
2022/03/30 05:21:12;;;;;;;;;;;5.60;99.90;;;;;;2076086;28;20313;-68
2022/03/30 05:22:12;;;;;;;;;;;5.60;99.90;;;;;;2078734;28;19948;-68
2022/03/30 05:23:12;;;;;;;;;;;5.60;99.90;;;;;;2075791;28;19947;-68
2022/03/30 05:24:13;;;;;;;;;;;5.60;99.90;;;;;;2077638;28;19935;-68
2022/03/30 05:25:15;;;;;;;;;;;5.50;99.90;;;;;;2075171;28;19967;-68
2022/03/30 05:26:15;;;;;;;;;;;5.50;99.90;;;;;;2073174;28;19948;-68
2022/03/30 05:27:16;;;;;;;;;;;5.50;99.90;;;;;;2077180;28;19912;-68
2022/03/30 05:28:16;;;;;;;;;;;5.50;99.90;;;;;;2074316;28;19916;-68
2022/03/30 05:29:17;;;;;;;;;;;5.50;99.90;;;;;;2077746;28;19920;-68
2022/03/30 05:30:17;;;;;;;;;;;5.50;99.90;;;;;;2075864;28;20385;-69
2022/03/30 05:31:18;;;;;;;;;;;5.50;99.90;;;;;;2075119;28;19905;-69
2022/03/30 05:32:18;;;;;;;;;;;5.50;99.90;;;;;;2076158;28;19984;-68
2022/03/30 05:33:19;;;;;;;;;;;5.50;99.90;;;;;;2076078;28;20334;-68
2022/03/30 05:34:19;;;;;;;;;;;5.50;99.90;;;;;;2078877;28;19909;-69
2022/03/30 05:35:19;;;;;;;;;;;5.50;99.90;;;;;;2077804;28;20378;-68
2022/03/30 05:36:20;;;;;;;;;;;5.40;99.90;;;;;;2078878;28;19920;-69
2022/03/30 05:37:21;;;;;;;;;;;5.40;99.90;;;;;;2076999;28;19917;-68
2022/03/30 05:38:21;;;;;;;;;;;5.40;99.90;;;;;;2076112;28;19921;-69
2022/03/30 05:39:22;;;;;;;;;;;5.40;99.90;;;;;;2075226;28;19932;-68
2022/03/30 05:40:22;;;;;;;;;;;5.40;99.90;;;;;;2076505;28;19975;-68
2022/03/30 05:41:23;;;;;;;;;;;5.40;99.90;;;;;;2073994;28;20439;-68
2022/03/30 05:42:23;;;;;;;;;;;5.40;99.90;;;;;;2074921;28;19960;-68
2022/03/30 05:43:25;;;;;;;;;;;5.40;99.90;;;;;;2075395;28;19999;-68
2022/03/30 05:44:25;;;;;;;;;;;5.40;99.90;;;;;;2078348;28;19909;-68
2022/03/30 05:45:26;;;;;;;;;;;5.40;99.90;;;;;;2074592;28;19912;-68
2022/03/30 05:46:26;;;;;;;;;;;5.40;99.90;;;;;;2077414;28;20360;-68
2022/03/30 05:47:28;;;;;;;;;;;5.40;99.90;;;;;;2075503;28;19933;-68
2022/03/30 05:48:29;;;;;;;;;;;5.40;99.90;;;;;;2076211;28;19913;-71
2022/03/30 05:49:29;;;;;;;;;;;5.40;99.90;;;;;;2076647;28;19917;-68
2022/03/30 05:50:30;;;;;;;;;;;5.40;99.90;;;;;;2078782;28;19905;-68
2022/03/30 05:51:30;;;;;;;;;;;5.40;99.90;;;;;;2076461;28;19927;-68
2022/03/30 05:52:31;;;;;;;;;;;5.40;99.90;;;;;;2075000;28;19913;-68
2022/03/30 05:53:31;;;;;;;;;;;5.40;99.90;;;;;;2073362;28;19992;-68
2022/03/30 05:54:31;;;;;;;;;;;5.40;99.90;;;;;;2077233;28;19909;-68
2022/03/30 05:55:32;;;;;;;;;;;5.40;99.90;;;;;;2074850;28;19913;-68
2022/03/30 05:57:52;;;;;;;;;;;5.40;99.90;;;;;;2077514;28;20289;-68
2022/03/30 05:58:52;;;;;;;;;;;5.40;99.90;;;;;;2077964;28;20003;-68
2022/03/30 05:59:53;;;;;;;;;;;5.40;99.90;;;;;;2076121;28;19905;-68
2022/03/30 06:00:53;;;;;;;;;;;5.40;99.90;;;;;;2075822;28;20427;-68
2022/03/30 06:01:54;;;;;;;;;;;5.40;99.90;;;;;;2075015;28;19909;-68
2022/03/30 06:02:54;;;;;;;;;;;5.40;99.90;;;;;;2075188;28;19949;-69
2022/03/30 06:03:55;;;;;;;;;;;5.40;99.90;;;;;;2075197;28;19905;-69
2022/03/30 06:04:56;;;;;;;;;;;5.40;99.90;;;;;;2073134;28;19982;-69